Archival Weather

Sydney Intl

Sydney, Australia (YSSY)

Report from: Wednesday, September 20, 2023 8:56 AM AEST
Current time: Tuesday, July 16, 2024 6:47 PM AEST

Current weather – Weather history – Daily summaries
Weather forecast

Temperature28.0°C (82.4°F)
Heat index26.9°C (80.4°F)
Dew point2.0°C (35.6°F)
Winds 19 kts (9.8 m/s, 21.9 mph) Northwest (320°)
Wind gusts 29 kts (14.9 m/s, 33.4 mph)
Clouds Sky clear
Altimeter29.83 in.Hg (1010 mB)
Relative humidity19 %
Density altitude1,715 ft. (523 m)
Remarks Ceiling and visibility OK
Special weather observation
Flight conditions Visual Meteorological Conditions
Raw dataSPECI YSSY 192256Z 32019G29KT CAVOK 28/02 Q1010
An error has occurred. This application may no longer respond until reloaded. Reload 🗙